ADDS METAR Data INFO
IDs: Format: Raw Decoded Include TAF

Data at: 0733 UTC 18 Oct 2017

KAZC 180715Z AUTO 12006KT 10SM CLR 07/M03 A3020 RMK AO2
KAZC 180655Z AUTO 13006KT 10SM CLR 06/M05 A3020 RMK AO2
KAZC 180635Z AUTO 14004KT 10SM CLR 06/M04 A3021 RMK AO2
KAZC 180615Z AUTO 14004KT 10SM CLR 05/M06 A3021 RMK AO2
KAZC 180555Z AUTO 15005KT 10SM CLR 06/M05 A3021 RMK AO2
KAZC 180535Z AUTO 14005KT 10SM CLR 07/M05 A3021 RMK AO2
KAZC 180515Z AUTO 13003KT 10SM CLR 07/M06 A3021 RMK AO2
KAZC 180455Z AUTO 15003KT 10SM CLR 07/M06 A3021 RMK AO2
KAZC 180435Z AUTO 14003KT 10SM CLR 08/M05 A3021 RMK AO2
KAZC 180415Z AUTO 14005KT 10SM CLR 08/M06 A3021 RMK AO2
KAZC 180355Z AUTO 00000KT 10SM CLR 10/M06 A3021 RMK AO2
KAZC 180335Z AUTO 00000KT 10SM CLR 10/M06 A3021 RMK AO2
KAZC 180315Z AUTO 12005KT 10SM CLR 10/M06 A3020 RMK AO2
KAZC 180255Z AUTO 00000KT 10SM CLR 12/M06 A3020 RMK AO2
KAZC 180235Z AUTO 00000KT 10SM CLR 14/M06 A3020 RMK AO2
KAZC 180215Z AUTO 00000KT 10SM CLR 16/M05 A3020 RMK AO2
KAZC 180155Z AUTO 00000KT 10SM CLR 18/M05 A3019 RMK AO2
KAZC 180135Z AUTO 31004KT 10SM CLR 20/M05 A3019 RMK AO2
KAZC 180115Z AUTO 31007KT 10SM CLR 21/M04 A3018 RMK AO2
KAZC 180055Z AUTO 33004KT 10SM CLR 22/M05 A3017 RMK AO2
KAZC 180035Z AUTO 29004KT 10SM CLR 25/M04 A3017 RMK AO2
KAZC 180015Z AUTO 29006KT 10SM CLR 26/M04 A3017 RMK AO2
KAZC 172355Z AUTO 28008KT 10SM CLR 27/M03 A3017 RMK AO2
KAZC 172335Z AUTO 27008KT 10SM CLR 27/M03 A3018 RMK AO2
KAZC 172315Z AUTO 27009KT 10SM CLR 28/M03 A3018 RMK AO2
KAZC 172255Z AUTO 25010G16KT 10SM CLR 28/M03 A3018 RMK AO2
KAZC 172235Z AUTO 30005KT 10SM CLR 28/M03 A3018 RMK AO2
KAZC 172215Z AUTO 13005KT 10SM CLR 29/M03 A3018 RMK AO2
KAZC 172155Z AUTO 00000KT 10SM CLR 28/M03 A3019 RMK AO2
KAZC 172135Z AUTO 26004G14KT 10SM CLR 29/M03 A3020 RMK AO2
KAZC 172115Z AUTO 27006KT 10SM CLR 29/M03 A3020 RMK AO2
KAZC 172055Z AUTO 00000KT 10SM CLR 28/M03 A3021 RMK AO2
KAZC 172035Z AUTO 21003KT 10SM CLR 28/M03 A3022 RMK AO2
KAZC 172015Z AUTO 21004KT 10SM CLR 28/M03 A3024 RMK AO2
KAZC 171955Z AUTO 21005KT 10SM CLR 27/M04 A3024 RMK AO2
KAZC 171935Z AUTO 15005KT 10SM CLR 27/M07 A3026 RMK AO2
KAZC 171915Z AUTO 16003KT 10SM CLR 27/M08 A3027 RMK AO2
KAZC 171855Z AUTO 13004KT 10SM CLR 27/M09 A3028 RMK AO2
KAZC 171835Z AUTO 13007KT 10SM CLR 26/M10 A3030 RMK AO2
KAZC 171815Z AUTO 14004KT 10SM CLR 25/M10 A3030 RMK AO2
KAZC 171755Z AUTO 11004KT 10SM CLR 24/M10 A3031 RMK AO2
KAZC 171735Z AUTO 14005KT 10SM CLR 23/M10 A3031 RMK AO2
KAZC 171715Z AUTO 00000KT 10SM CLR 22/M10 A3032 RMK AO2
KAZC 171655Z AUTO 16003KT 10SM CLR 21/M10 A3032 RMK AO2
KAZC 171635Z AUTO 00000KT 10SM CLR 20/M11 A3033 RMK AO2
KAZC 171615Z AUTO 15003KT 10SM CLR 17/M11 A3033 RMK AO2
KAZC 171555Z AUTO 00000KT 10SM CLR 16/M11 A3033 RMK AO2
KAZC 171535Z AUTO 13003KT 10SM CLR 14/M12 A3033 RMK AO2
KAZC 171515Z AUTO 14005KT 10SM CLR 12/M12 A3033 RMK AO2
KAZC 171455Z AUTO 12004KT 10SM CLR 09/M12 A3033 RMK AO2
KAZC 171435Z AUTO 00000KT 10SM CLR 06/M11 A3032 RMK AO2
KAZC 171415Z AUTO 12003KT 10SM CLR 03/M12 A3032 RMK AO2
KAZC 171355Z AUTO 14005KT 10SM CLR 01/M12 A3032 RMK AO2
KAZC 171335Z AUTO 15005KT 10SM CLR 01/M12 A3032 RMK AO2
KAZC 171315Z AUTO 16004KT 10SM CLR 02/M12 A3032 RMK AO2
KAZC 171255Z AUTO 13004KT 10SM CLR 02/M11 A3032 RMK AO2
KAZC 171235Z AUTO 13003KT 10SM CLR 01/M13 A3031 RMK AO2
KAZC 171215Z AUTO 13004KT 10SM CLR 00/M13 A3032 RMK AO2
KAZC 171155Z AUTO 13003KT 10SM CLR 02/M11 A3032 RMK AO2
KAZC 171135Z AUTO 09004KT 10SM CLR 02/M12 A3032 RMK AO2
KAZC 171115Z AUTO 14003KT 10SM CLR 02/M12 A3032 RMK AO2
KAZC 171055Z AUTO 15004KT 10SM CLR 02/M13 A3032 RMK AO2
KAZC 171035Z AUTO 13004KT 10SM CLR 01/M11 A3032 RMK AO2
KAZC 171015Z AUTO 12003KT 10SM CLR 01/M12 A3032 RMK AO2
KAZC 170955Z AUTO 12006KT 10SM CLR 00/M13 A3033 RMK AO2
KAZC 170935Z AUTO 14003KT 10SM CLR 00/M14 A3034 RMK AO2
KAZC 170915Z AUTO 15004KT 10SM CLR 03/M13 A3034 RMK AO2
KAZC 170855Z AUTO 12003KT 10SM CLR 03/M12 A3035 RMK AO2
KAZC 170835Z AUTO 13005KT 10SM CLR 03/M13 A3035 RMK AO2
KAZC 170815Z AUTO 14004KT 10SM CLR 04/M13 A3035 RMK AO2
KAZC 170755Z AUTO 12004KT 10SM CLR 03/M12 A3035 RMK AO2
KAZC 170735Z AUTO 15004KT 10SM CLR 03/M13 A3034 RMK AO2
KAZC 170715Z AUTO 15007KT 10SM CLR 03/M13 A3034 RMK AO2
KAZC 170655Z AUTO 13004KT 10SM CLR 03/M13 A3034 RMK AO2
KAZC 170635Z AUTO 13004KT 10SM CLR 05/M12 A3034 RMK AO2
KAZC 170615Z AUTO 11004KT 10SM CLR 03/M12 A3034 RMK AO2
KAZC 170555Z AUTO 12006KT 10SM CLR 03/M13 A3034 RMK AO2
KAZC 170535Z AUTO 00000KT 10SM CLR 05/M12 A3034 RMK AO2
KAZC 170515Z AUTO 14003KT 10SM CLR 06/M12 A3034 RMK AO2
KAZC 170455Z AUTO 16003KT 10SM CLR 05/M12 A3033 RMK AO2
KAZC 170435Z AUTO 15005KT 10SM CLR 06/M12 A3033 RMK AO2
KAZC 170415Z AUTO 14005KT 10SM CLR 06/M13 A3032 RMK AO2
KAZC 170355Z AUTO 16003KT 10SM CLR 08/M12 A3032 RMK AO2
KAZC 170335Z AUTO 13003KT 10SM CLR 09/M12 A3031 RMK AO2
KAZC 170315Z AUTO 14004KT 10SM CLR 08/M11 A3031 RMK AO2
KAZC 170255Z AUTO 12004KT 10SM CLR 08/M11 A3031 RMK AO2
KAZC 170235Z AUTO 09005KT 10SM CLR 09/M11 A3031 RMK AO2
KAZC 170215Z AUTO 00000KT 10SM CLR 14/M10 A3031 RMK AO2
KAZC 170155Z AUTO 01003KT 10SM CLR 13/M09 A3030 RMK AO2
KAZC 170135Z AUTO 36004KT 10SM CLR 16/M12 A3030 RMK AO2
KAZC 170115Z AUTO 33004KT 10SM CLR 19/M11 A3030 RMK AO2
KAZC 170055Z AUTO 00000KT 10SM CLR 22/M11 A3030 RMK AO2
KAZC 170035Z AUTO 33003KT 10SM CLR 24/M11 A3030 RMK AO2
KAZC 170015Z AUTO 30003KT 10SM CLR 26/M11 A3030 RMK AO2
KAZC 162355Z AUTO 31005KT 10SM CLR 26/M11 A3030 RMK AO2
KAZC 162335Z AUTO 26004KT 10SM CLR 27/M11 A3031 RMK AO2
KAZC 162315Z AUTO 00000KT 10SM CLR 27/M11 A3031 RMK AO2
KAZC 162255Z AUTO 26006KT 240V310 10SM CLR 28/M11 A3031 RMK AO2
KAZC 162235Z AUTO 00000KT 10SM CLR 27/M11 A3031 RMK AO2
KAZC 162215Z AUTO 00000KT 10SM CLR 28/M11 A3031 RMK AO2
KAZC 162155Z AUTO 22004KT 10SM CLR 28/M11 A3031 RMK AO2
KAZC 162135Z AUTO 00000KT 10SM CLR 27/M11 A3032 RMK AO2
KAZC 162115Z AUTO 15003KT 10SM CLR 27/M10 A3032 RMK AO2
KAZC 162055Z AUTO 00000KT 10SM CLR 27/M11 A3033 RMK AO2
KAZC 162035Z AUTO 26004KT 10SM CLR 27/M11 A3034 RMK AO2
KAZC 162015Z AUTO 14005KT 10SM CLR 27/M11 A3035 RMK AO2
KAZC 161955Z AUTO 18007KT 10SM CLR 26/M11 A3035 RMK AO2
KAZC 161935Z AUTO 00000KT 10SM CLR 26/M11 A3037 RMK AO2